createdAt,value
2019-05-22T00:02:00.950Z,97.40
2019-05-22T00:07:08.205Z,97.17
2019-05-22T00:12:17.436Z,95.86
2019-05-22T00:17:30.011Z,96.29
2019-05-22T00:22:35.280Z,96.52
2019-05-22T00:27:39.528Z,97.43
2019-05-22T00:32:43.220Z,96.33
2019-05-22T00:37:47.198Z,96.13
2019-05-22T00:43:03.483Z,94.62
2019-05-22T00:47:57.897Z,96.88
2019-05-22T00:53:02.700Z,94.44
2019-05-22T00:58:18.559Z,96.55
2019-05-22T01:03:24.337Z,97.36
2019-05-22T01:08:28.523Z,95.60
2019-05-22T01:13:32.771Z,96.41
2019-05-22T01:18:38.460Z,96.30
2019-05-22T01:23:42.740Z,96.11
2019-05-22T01:28:48.910Z,95.66
2019-05-22T01:34:01.546Z,95.93
2019-05-22T01:39:31.130Z,96.71
2019-05-22T01:44:35.486Z,94.71
2019-05-22T01:49:44.003Z,95.67
2019-05-22T01:54:47.900Z,95.70
2019-05-22T01:59:52.230Z,96.79
2019-05-22T02:04:58.044Z,96.37
2019-05-22T02:10:03.400Z,96.17
2019-05-22T02:15:09.415Z,97.00
2019-05-22T02:20:13.602Z,96.52
2019-05-22T02:25:17.887Z,96.33
2019-05-22T02:30:24.536Z,96.48
2019-05-22T02:35:28.804Z,96.54
2019-05-22T02:40:36.788Z,95.58
2019-05-22T02:45:39.897Z,96.54
2019-05-22T02:50:43.257Z,97.22
2019-05-22T02:55:47.097Z,94.76
2019-05-22T03:00:57.834Z,95.88
2019-05-22T03:06:05.065Z,96.98
2019-05-22T03:11:08.599Z,95.77
2019-05-22T03:16:11.694Z,95.43
2019-05-22T03:21:15.213Z,95.55
2019-05-22T03:26:21.784Z,96.90
2019-05-22T03:31:24.929Z,95.27
2019-05-22T03:36:28.740Z,96.21
2019-05-22T03:41:32.799Z,95.97
2019-05-22T03:46:44.200Z,96.71
2019-05-22T03:51:50.292Z,97.22
2019-05-22T03:56:55.679Z,97.90
2019-05-22T04:01:58.869Z,97.47
2019-05-22T04:07:03.195Z,95.57
2019-05-22T04:12:07.338Z,95.98
2019-05-22T04:17:12.990Z,96.57
2019-05-22T04:22:17.253Z,95.71
2019-05-22T04:27:21.236Z,95.90
2019-05-22T04:32:30.072Z,96.20
2019-05-22T04:37:33.999Z,97.65
2019-05-22T04:42:38.034Z,95.56
2019-05-22T04:47:54.752Z,96.33
2019-05-22T04:52:59.637Z,95.52
2019-05-22T04:58:04.125Z,96.56
2019-05-22T05:03:08.201Z,95.51
2019-05-22T05:08:18.048Z,96.52
2019-05-22T05:13:21.408Z,96.54
2019-05-22T05:18:25.014Z,97.12
2019-05-22T05:23:29.087Z,97.32
2019-05-22T05:28:33.983Z,96.98
2019-05-22T05:34:03.555Z,97.08
2019-05-22T05:39:12.376Z,96.91
2019-05-22T05:44:14.973Z,95.75
2019-05-22T05:49:18.876Z,96.14
2019-05-22T05:54:23.206Z,97.10
2019-05-22T05:59:28.036Z,95.96
2019-05-22T06:04:35.764Z,95.36
2019-05-22T06:09:39.840Z,95.52
2019-05-22T06:14:43.750Z,96.41
2019-05-22T06:19:50.261Z,94.96
2019-05-22T06:25:05.962Z,95.11
2019-05-22T06:30:13.644Z,94.80
2019-05-22T06:35:17.481Z,94.18
2019-05-22T06:40:22.248Z,96.16
2019-05-22T06:45:26.236Z,95.54
2019-05-22T06:50:29.627Z,95.16
2019-05-22T06:55:33.227Z,95.00
2019-05-22T07:00:36.860Z,93.69
2019-05-22T07:05:40.592Z,96.51
2019-05-22T07:10:44.434Z,97.00
2019-05-22T07:15:54.000Z,95.26
2019-05-22T07:20:57.337Z,95.38
2019-05-22T07:26:01.946Z,94.45
2019-05-22T07:31:07.676Z,95.85
2019-05-22T07:36:16.500Z,95.59
2019-05-22T07:41:16.976Z,93.87
2019-05-22T07:46:20.434Z,94.44
2019-05-22T07:51:25.339Z,93.62
2019-05-22T07:56:29.410Z,96.15
2019-05-22T08:01:33.336Z,94.94
2019-05-22T08:06:37.145Z,93.58
2019-05-22T08:11:41.242Z,94.30
2019-05-22T08:16:45.374Z,94.01
2019-05-22T08:21:48.372Z,95.15
2019-05-22T08:26:54.851Z,94.94
2019-05-22T08:31:59.142Z,93.23
2019-05-22T08:37:05.430Z,94.96
2019-05-22T08:42:10.834Z,93.61
2019-05-22T08:47:14.464Z,93.42
2019-05-22T08:52:23.576Z,93.78
2019-05-22T08:57:25.724Z,92.95
2019-05-22T09:02:31.745Z,94.57
2019-05-22T09:07:35.850Z,93.51
2019-05-22T09:12:39.063Z,93.08
2019-05-22T09:17:42.064Z,91.72
2019-05-22T09:22:47.060Z,92.48
2019-05-22T09:27:50.743Z,92.73
2019-05-22T09:32:55.477Z,93.00
2019-05-22T09:37:59.003Z,93.38
2019-05-22T09:43:02.757Z,93.20
2019-05-22T09:48:07.599Z,92.41
2019-05-22T09:53:11.024Z,92.84
2019-05-22T09:58:14.656Z,93.09
2019-05-22T10:03:18.066Z,93.22
2019-05-22T10:08:21.930Z,92.14
2019-05-22T10:13:28.996Z,92.56
2019-05-22T10:18:30.794Z,91.61
2019-05-22T10:23:35.055Z,93.47
2019-05-22T10:28:38.489Z,92.05
2019-05-22T10:33:42.142Z,91.37
2019-05-22T10:38:45.449Z,90.52
2019-05-22T10:43:49.728Z,92.05
2019-05-22T10:48:52.957Z,89.47
2019-05-22T10:53:56.235Z,88.07
2019-05-22T10:59:01.665Z,88.89
2019-05-22T11:04:06.121Z,89.26
2019-05-22T11:09:11.829Z,87.06
2019-05-22T11:14:15.143Z,88.12
2019-05-22T11:19:20.553Z,87.37
2019-05-22T11:24:24.022Z,87.04
2019-05-22T11:29:28.249Z,87.54
2019-05-22T11:34:31.959Z,89.70
2019-05-22T11:39:39.784Z,89.03
2019-05-22T11:44:42.568Z,88.10
2019-05-22T11:49:45.802Z,85.03
2019-05-22T11:54:49.609Z,86.16
2019-05-22T11:59:53.141Z,87.47
2019-05-22T12:04:57.644Z,85.47
2019-05-22T12:10:00.597Z,84.46
2019-05-22T12:15:06.182Z,84.02
2019-05-22T12:20:10.844Z,84.34
2019-05-22T12:25:14.731Z,85.34
2019-05-22T12:30:19.832Z,87.31
2019-05-22T12:35:25.098Z,83.04
2019-05-22T12:40:33.643Z,80.28
2019-05-22T12:45:39.134Z,80.94
2019-05-22T12:50:42.556Z,83.05
2019-05-22T12:55:46.052Z,80.57
2019-05-22T13:00:49.224Z,80.56
2019-05-22T13:05:52.581Z,78.05
2019-05-22T13:10:56.920Z,77.94
2019-05-22T13:16:02.299Z,76.13
2019-05-22T13:21:11.109Z,75.60
2019-05-22T13:26:16.634Z,79.91
2019-05-22T13:31:21.043Z,78.02
2019-05-22T13:36:24.817Z,78.72
2019-05-22T13:41:28.829Z,77.23
2019-05-22T13:46:31.691Z,77.88
2019-05-22T13:51:35.578Z,78.34
2019-05-22T13:56:40.054Z,77.79
2019-05-22T14:01:43.569Z,76.34
2019-05-22T14:06:47.246Z,75.19
2019-05-22T14:11:51.388Z,75.33
2019-05-22T14:16:54.628Z,73.87
2019-05-22T14:21:57.877Z,70.47
2019-05-22T14:27:01.271Z,67.54
2019-05-22T14:32:06.762Z,69.18
2019-05-22T14:37:10.663Z,72.08
2019-05-22T14:42:15.084Z,69.85
2019-05-22T14:47:19.098Z,66.58
2019-05-22T14:52:23.750Z,62.89
2019-05-22T14:57:27.682Z,67.33
2019-05-22T15:02:31.513Z,63.55
2019-05-22T15:07:34.497Z,61.69
2019-05-22T15:12:37.032Z,59.31
2019-05-22T15:17:40.686Z,59.29
2019-05-22T15:22:44.542Z,59.87
2019-05-22T15:27:48.225Z,56.62
2019-05-22T15:32:51.739Z,55.02
2019-05-22T15:37:55.505Z,55.43
2019-05-22T15:42:59.270Z,55.07
2019-05-22T15:48:07.487Z,54.68
2019-05-22T15:53:14.991Z,55.15
2019-05-22T15:58:18.555Z,55.17
2019-05-22T16:03:26.408Z,55.17
2019-05-22T16:08:31.282Z,54.72
2019-05-22T16:13:36.374Z,54.37
2019-05-22T16:18:43.801Z,53.83
2019-05-22T16:23:47.734Z,54.89
2019-05-22T16:28:51.377Z,52.22
2019-05-22T16:33:54.675Z,54.49
2019-05-22T16:38:57.579Z,54.07
2019-05-22T16:44:01.400Z,54.14
2019-05-22T16:49:05.433Z,56.58
2019-05-22T16:54:10.182Z,55.45
2019-05-22T16:59:14.282Z,54.76
2019-05-22T17:04:18.164Z,55.76
2019-05-22T17:09:21.234Z,56.80
2019-05-22T17:14:25.655Z,57.45
2019-05-22T17:19:29.688Z,56.03
2019-05-22T17:24:34.454Z,56.56
2019-05-22T17:29:38.143Z,58.81
2019-05-22T17:34:41.104Z,58.56
2019-05-22T17:39:48.012Z,58.42
2019-05-22T17:44:53.632Z,57.84
2019-05-22T17:49:58.694Z,58.79
2019-05-22T17:55:04.423Z,60.62
2019-05-22T18:00:12.495Z,60.25
2019-05-22T18:05:16.280Z,61.21
2019-05-22T18:10:20.567Z,63.71
2019-05-22T18:15:24.142Z,65.26
2019-05-22T18:20:41.723Z,67.69
2019-05-22T18:25:32.307Z,68.30
2019-05-22T18:30:37.751Z,68.73
2019-05-22T18:35:41.226Z,68.57
2019-05-22T18:40:44.876Z,69.55
2019-05-22T18:45:48.934Z,68.97
2019-05-22T18:50:53.310Z,69.16
2019-05-22T18:55:57.146Z,71.06
2019-05-22T19:01:00.750Z,71.31
2019-05-22T19:06:04.938Z,72.23
2019-05-22T19:11:09.723Z,72.02
2019-05-22T19:16:13.994Z,71.61
2019-05-22T19:21:18.342Z,72.11
2019-05-22T19:26:22.208Z,72.96
2019-05-22T19:31:25.979Z,73.87
2019-05-22T19:36:29.862Z,73.36
2019-05-22T19:41:34.110Z,72.85
2019-05-22T19:46:39.110Z,73.25
2019-05-22T19:51:42.618Z,73.33
2019-05-22T19:56:45.662Z,74.31
2019-05-22T20:01:51.935Z,74.92
2019-05-22T20:06:56.192Z,75.51
2019-05-22T20:12:01.254Z,75.40
2019-05-22T20:17:05.401Z,76.24
2019-05-22T20:22:07.824Z,76.63
2019-05-22T20:27:12.014Z,76.95
2019-05-22T20:32:15.704Z,77.60
2019-05-22T20:37:18.838Z,76.82
2019-05-22T20:42:22.960Z,75.03
2019-05-22T20:47:26.534Z,75.36
2019-05-22T20:52:31.212Z,75.12
2019-05-22T20:57:35.986Z,73.92
2019-05-22T21:02:39.629Z,74.05
2019-05-22T21:07:48.538Z,73.75
2019-05-22T21:12:52.811Z,74.31
2019-05-22T21:17:58.239Z,75.06
2019-05-22T21:23:03.277Z,75.07
2019-05-22T21:28:06.814Z,75.17
2019-05-22T21:33:11.040Z,75.60
2019-05-22T21:38:14.214Z,76.00
2019-05-22T21:43:18.756Z,77.20
2019-05-22T21:48:23.389Z,77.85
2019-05-22T21:53:27.141Z,78.78
2019-05-22T21:58:30.663Z,78.96
2019-05-22T22:03:37.904Z,79.52
2019-05-22T22:08:41.484Z,80.10
2019-05-22T22:13:45.007Z,80.25
2019-05-22T22:18:49.425Z,81.02
2019-05-22T22:23:52.844Z,80.94
2019-05-22T22:28:56.797Z,81.65
2019-05-22T22:34:07.467Z,81.05
2019-05-22T22:39:14.799Z,81.46
2019-05-22T22:44:22.159Z,81.42
2019-05-22T22:49:27.760Z,81.92
2019-05-22T22:54:31.567Z,82.89
2019-05-22T22:59:35.683Z,83.84
2019-05-22T23:04:39.684Z,84.78
2019-05-22T23:09:43.869Z,84.21
2019-05-22T23:14:51.847Z,83.05
2019-05-22T23:19:54.687Z,82.94
2019-05-22T23:24:59.794Z,82.91
2019-05-22T23:30:04.445Z,83.25
2019-05-22T23:35:08.484Z,83.36
2019-05-22T23:40:13.159Z,84.03
2019-05-22T23:45:19.733Z,83.75
2019-05-22T23:50:24.091Z,83.52
2019-05-22T23:55:27.425Z,83.26
